sensor_id;sensor_type;location;lat;lon;timestamp;temperature;humidity
54824;DHT22;40724;53.196;5.980;2024-02-15T00:02:07;10.00;99.90
54824;DHT22;40724;53.196;5.980;2024-02-15T00:04:32;10.00;99.90
54824;DHT22;40724;53.196;5.980;2024-02-15T00:06:59;10.00;99.90
54824;DHT22;40724;53.196;5.980;2024-02-15T00:09:25;10.00;99.90
54824;DHT22;40724;53.196;5.980;2024-02-15T00:11:51;10.00;99.90
54824;DHT22;40724;53.196;5.980;2024-02-15T00:14:19;10.00;99.90
54824;DHT22;40724;53.196;5.980;2024-02-15T00:16:45;10.00;99.90
54824;DHT22;40724;53.196;5.980;2024-02-15T00:19:11;10.00;99.90
54824;DHT22;40724;53.196;5.980;2024-02-15T00:21:37;10.00;99.90
54824;DHT22;40724;53.196;5.980;2024-02-15T00:24:03;10.00;99.90
54824;DHT22;40724;53.196;5.980;2024-02-15T00:26:28;10.00;99.90
54824;DHT22;40724;53.196;5.980;2024-02-15T00:28:54;10.00;99.90
54824;DHT22;40724;53.196;5.980;2024-02-15T00:31:20;9.90;99.90
54824;DHT22;40724;53.196;5.980;2024-02-15T00:33:46;9.90;99.90
54824;DHT22;40724;53.196;5.980;2024-02-15T00:36:11;10.00;99.90
54824;DHT22;40724;53.196;5.980;2024-02-15T00:38:37;10.00;99.90
54824;DHT22;40724;53.196;5.980;2024-02-15T00:41:04;10.00;99.90
54824;DHT22;40724;53.196;5.980;2024-02-15T00:43:34;10.00;99.90
54824;DHT22;40724;53.196;5.980;2024-02-15T00:46:01;9.90;99.90
54824;DHT22;40724;53.196;5.980;2024-02-15T00:48:27;9.90;99.90
54824;DHT22;40724;53.196;5.980;2024-02-15T00:51:03;10.00;99.90
54824;DHT22;40724;53.196;5.980;2024-02-15T00:53:29;10.00;99.90
54824;DHT22;40724;53.196;5.980;2024-02-15T00:55:55;10.00;99.90
54824;DHT22;40724;53.196;5.980;2024-02-15T00:58:21;10.00;99.90
54824;DHT22;40724;53.196;5.980;2024-02-15T01:00:47;9.90;99.90
54824;DHT22;40724;53.196;5.980;2024-02-15T01:03:13;10.00;99.90
54824;DHT22;40724;53.196;5.980;2024-02-15T01:05:39;9.90;99.90
54824;DHT22;40724;53.196;5.980;2024-02-15T01:08:05;10.00;99.90
54824;DHT22;40724;53.196;5.980;2024-02-15T01:10:31;10.00;99.90
54824;DHT22;40724;53.196;5.980;2024-02-15T01:12:56;9.90;99.90
54824;DHT22;40724;53.196;5.980;2024-02-15T01:15:23;10.00;99.90
54824;DHT22;40724;53.196;5.980;2024-02-15T01:17:48;10.00;99.90
54824;DHT22;40724;53.196;5.980;2024-02-15T01:20:15;10.00;99.90
54824;DHT22;40724;53.196;5.980;2024-02-15T01:22:41;10.00;99.90
54824;DHT22;40724;53.196;5.980;2024-02-15T01:25:06;10.00;99.90
54824;DHT22;40724;53.196;5.980;2024-02-15T01:27:33;10.00;99.90
54824;DHT22;40724;53.196;5.980;2024-02-15T01:29:59;10.00;99.90
54824;DHT22;40724;53.196;5.980;2024-02-15T01:32:25;9.90;99.90
54824;DHT22;40724;53.196;5.980;2024-02-15T01:34:51;10.00;99.90
54824;DHT22;40724;53.196;5.980;2024-02-15T01:37:20;10.00;99.90
54824;DHT22;40724;53.196;5.980;2024-02-15T01:39:46;9.90;99.90
54824;DHT22;40724;53.196;5.980;2024-02-15T01:42:12;10.00;99.90
54824;DHT22;40724;53.196;5.980;2024-02-15T01:44:40;10.00;99.90
54824;DHT22;40724;53.196;5.980;2024-02-15T01:47:06;10.00;99.90
54824;DHT22;40724;53.196;5.980;2024-02-15T01:49:34;10.00;99.90
54824;DHT22;40724;53.196;5.980;2024-02-15T01:52:01;10.00;99.90
54824;DHT22;40724;53.196;5.980;2024-02-15T01:54:28;10.00;99.90
54824;DHT22;40724;53.196;5.980;2024-02-15T01:56:54;10.00;99.90
54824;DHT22;40724;53.196;5.980;2024-02-15T01:59:22;9.90;99.90
54824;DHT22;40724;53.196;5.980;2024-02-15T02:01:48;9.90;99.90
54824;DHT22;40724;53.196;5.980;2024-02-15T02:04:15;10.00;99.90
54824;DHT22;40724;53.196;5.980;2024-02-15T02:06:41;9.90;99.90
54824;DHT22;40724;53.196;5.980;2024-02-15T02:09:13;9.90;99.90
54824;DHT22;40724;53.196;5.980;2024-02-15T02:11:45;9.90;99.90
54824;DHT22;40724;53.196;5.980;2024-02-15T02:14:11;10.00;99.90
54824;DHT22;40724;53.196;5.980;2024-02-15T02:16:37;10.00;99.90
54824;DHT22;40724;53.196;5.980;2024-02-15T02:19:05;10.00;99.90
54824;DHT22;40724;53.196;5.980;2024-02-15T02:21:35;10.00;99.90
54824;DHT22;40724;53.196;5.980;2024-02-15T02:24:03;10.00;99.90
54824;DHT22;40724;53.196;5.980;2024-02-15T02:26:34;10.00;99.90
54824;DHT22;40724;53.196;5.980;2024-02-15T02:29:02;9.90;99.90
54824;DHT22;40724;53.196;5.980;2024-02-15T02:31:34;10.00;99.90
54824;DHT22;40724;53.196;5.980;2024-02-15T02:34:00;10.00;99.90
54824;DHT22;40724;53.196;5.980;2024-02-15T02:36:26;9.90;99.90
54824;DHT22;40724;53.196;5.980;2024-02-15T02:38:52;10.00;99.90
54824;DHT22;40724;53.196;5.980;2024-02-15T02:41:18;10.00;99.90
54824;DHT22;40724;53.196;5.980;2024-02-15T02:43:48;10.00;99.90
54824;DHT22;40724;53.196;5.980;2024-02-15T02:46:14;10.00;99.90
54824;DHT22;40724;53.196;5.980;2024-02-15T02:48:40;10.00;99.90
54824;DHT22;40724;53.196;5.980;2024-02-15T02:51:07;10.00;99.90
54824;DHT22;40724;53.196;5.980;2024-02-15T02:53:33;10.00;99.90
54824;DHT22;40724;53.196;5.980;2024-02-15T02:55:59;10.00;99.90
54824;DHT22;40724;53.196;5.980;2024-02-15T02:58:24;10.00;99.90
54824;DHT22;40724;53.196;5.980;2024-02-15T03:00:51;10.00;99.90
54824;DHT22;40724;53.196;5.980;2024-02-15T03:03:17;10.00;99.90
54824;DHT22;40724;53.196;5.980;2024-02-15T03:05:44;10.00;99.90
54824;DHT22;40724;53.196;5.980;2024-02-15T03:08:13;10.00;99.90
54824;DHT22;40724;53.196;5.980;2024-02-15T03:10:39;10.00;99.90
54824;DHT22;40724;53.196;5.980;2024-02-15T03:13:06;10.00;99.90
54824;DHT22;40724;53.196;5.980;2024-02-15T03:15:34;10.00;99.90
54824;DHT22;40724;53.196;5.980;2024-02-15T03:18:00;10.00;99.90
54824;DHT22;40724;53.196;5.980;2024-02-15T03:20:33;10.00;99.90
54824;DHT22;40724;53.196;5.980;2024-02-15T03:23:02;10.00;99.90
54824;DHT22;40724;53.196;5.980;2024-02-15T03:25:28;10.00;99.90
54824;DHT22;40724;53.196;5.980;2024-02-15T03:27:56;10.00;99.90
54824;DHT22;40724;53.196;5.980;2024-02-15T03:30:23;10.00;99.90
54824;DHT22;40724;53.196;5.980;2024-02-15T03:32:52;10.00;99.90
54824;DHT22;40724;53.196;5.980;2024-02-15T03:35:22;10.00;99.90
54824;DHT22;40724;53.196;5.980;2024-02-15T03:37:48;10.00;99.90
54824;DHT22;40724;53.196;5.980;2024-02-15T03:40:18;10.00;99.90
54824;DHT22;40724;53.196;5.980;2024-02-15T03:42:45;10.00;99.90
54824;DHT22;40724;53.196;5.980;2024-02-15T03:45:12;10.00;99.90
54824;DHT22;40724;53.196;5.980;2024-02-15T03:47:38;10.00;99.90
54824;DHT22;40724;53.196;5.980;2024-02-15T03:50:07;10.00;99.90
54824;DHT22;40724;53.196;5.980;2024-02-15T03:52:36;10.00;99.90
54824;DHT22;40724;53.196;5.980;2024-02-15T03:55:03;10.00;99.90
54824;DHT22;40724;53.196;5.980;2024-02-15T03:57:29;10.00;99.90
54824;DHT22;40724;53.196;5.980;2024-02-15T03:59:55;10.00;99.90
54824;DHT22;40724;53.196;5.980;2024-02-15T04:02:25;10.00;99.90
54824;DHT22;40724;53.196;5.980;2024-02-15T04:04:54;10.00;99.90
54824;DHT22;40724;53.196;5.980;2024-02-15T04:07:21;10.00;99.90
54824;DHT22;40724;53.196;5.980;2024-02-15T04:09:48;10.00;99.90
54824;DHT22;40724;53.196;5.980;2024-02-15T04:12:14;10.00;99.90
54824;DHT22;40724;53.196;5.980;2024-02-15T04:14:40;10.00;99.90
54824;DHT22;40724;53.196;5.980;2024-02-15T04:17:07;10.00;99.90
54824;DHT22;40724;53.196;5.980;2024-02-15T04:19:33;10.00;99.90
54824;DHT22;40724;53.196;5.980;2024-02-15T04:21:59;10.00;99.90
54824;DHT22;40724;53.196;5.980;2024-02-15T04:24:28;10.00;99.90
54824;DHT22;40724;53.196;5.980;2024-02-15T04:26:55;10.00;99.90
54824;DHT22;40724;53.196;5.980;2024-02-15T04:29:21;10.00;99.90
54824;DHT22;40724;53.196;5.980;2024-02-15T04:31:47;10.00;99.90
54824;DHT22;40724;53.196;5.980;2024-02-15T04:34:16;10.00;99.90
54824;DHT22;40724;53.196;5.980;2024-02-15T04:36:46;10.00;99.90
54824;DHT22;40724;53.196;5.980;2024-02-15T04:39:15;10.00;99.90
54824;DHT22;40724;53.196;5.980;2024-02-15T04:41:50;10.00;99.90
54824;DHT22;40724;53.196;5.980;2024-02-15T04:44:16;10.00;99.90
54824;DHT22;40724;53.196;5.980;2024-02-15T04:46:46;10.00;99.90
54824;DHT22;40724;53.196;5.980;2024-02-15T04:49:15;10.00;99.90
54824;DHT22;40724;53.196;5.980;2024-02-15T04:51:41;10.00;99.90
54824;DHT22;40724;53.196;5.980;2024-02-15T04:54:07;10.00;99.90
54824;DHT22;40724;53.196;5.980;2024-02-15T04:56:33;10.00;99.90
54824;DHT22;40724;53.196;5.980;2024-02-15T04:59:04;10.00;99.90
54824;DHT22;40724;53.196;5.980;2024-02-15T05:01:30;10.00;99.90
54824;DHT22;40724;53.196;5.980;2024-02-15T05:03:58;10.10;99.90
54824;DHT22;40724;53.196;5.980;2024-02-15T05:06:24;10.00;99.90
54824;DHT22;40724;53.196;5.980;2024-02-15T05:08:51;10.00;99.90
54824;DHT22;40724;53.196;5.980;2024-02-15T05:11:17;10.10;99.90
54824;DHT22;40724;53.196;5.980;2024-02-15T05:13:48;10.00;99.90
54824;DHT22;40724;53.196;5.980;2024-02-15T05:16:18;10.00;99.90
54824;DHT22;40724;53.196;5.980;2024-02-15T05:18:44;10.10;99.90
54824;DHT22;40724;53.196;5.980;2024-02-15T05:21:11;10.10;99.90
54824;DHT22;40724;53.196;5.980;2024-02-15T05:23:38;10.10;99.90
54824;DHT22;40724;53.196;5.980;2024-02-15T05:26:06;10.10;99.90
54824;DHT22;40724;53.196;5.980;2024-02-15T05:28:32;10.10;99.90
54824;DHT22;40724;53.196;5.980;2024-02-15T05:31:18;10.10;99.90
54824;DHT22;40724;53.196;5.980;2024-02-15T05:33:46;10.10;99.90
54824;DHT22;40724;53.196;5.980;2024-02-15T05:36:13;10.10;99.90
54824;DHT22;40724;53.196;5.980;2024-02-15T05:38:40;10.10;99.90
54824;DHT22;40724;53.196;5.980;2024-02-15T05:41:06;10.10;99.90
54824;DHT22;40724;53.196;5.980;2024-02-15T05:43:35;10.10;99.90
54824;DHT22;40724;53.196;5.980;2024-02-15T05:46:04;10.10;99.90
54824;DHT22;40724;53.196;5.980;2024-02-15T05:48:30;10.10;99.90
54824;DHT22;40724;53.196;5.980;2024-02-15T05:50:56;10.10;99.90
54824;DHT22;40724;53.196;5.980;2024-02-15T05:53:23;10.10;99.90
54824;DHT22;40724;53.196;5.980;2024-02-15T05:55:50;10.20;99.90
54824;DHT22;40724;53.196;5.980;2024-02-15T05:58:16;10.20;99.90
54824;DHT22;40724;53.196;5.980;2024-02-15T06:00:42;10.20;99.90
54824;DHT22;40724;53.196;5.980;2024-02-15T06:03:13;10.20;99.90
54824;DHT22;40724;53.196;5.980;2024-02-15T06:05:39;10.20;99.90
54824;DHT22;40724;53.196;5.980;2024-02-15T06:08:05;10.20;99.90
54824;DHT22;40724;53.196;5.980;2024-02-15T06:10:31;10.20;99.90
54824;DHT22;40724;53.196;5.980;2024-02-15T06:12:57;10.20;99.90
54824;DHT22;40724;53.196;5.980;2024-02-15T06:15:26;10.20;99.90
54824;DHT22;40724;53.196;5.980;2024-02-15T06:17:52;10.20;99.90
54824;DHT22;40724;53.196;5.980;2024-02-15T06:20:18;10.20;99.90
54824;DHT22;40724;53.196;5.980;2024-02-15T06:22:46;10.30;99.90
54824;DHT22;40724;53.196;5.980;2024-02-15T06:25:12;10.30;99.90
54824;DHT22;40724;53.196;5.980;2024-02-15T06:27:39;10.30;99.90
54824;DHT22;40724;53.196;5.980;2024-02-15T06:30:11;10.30;99.90
54824;DHT22;40724;53.196;5.980;2024-02-15T06:32:57;10.20;99.90
54824;DHT22;40724;53.196;5.980;2024-02-15T06:35:42;10.20;99.90
54824;DHT22;40724;53.196;5.980;2024-02-15T06:38:26;10.30;99.90
54824;DHT22;40724;53.196;5.980;2024-02-15T06:41:11;10.30;99.90
54824;DHT22;40724;53.196;5.980;2024-02-15T06:43:37;10.30;99.90
54824;DHT22;40724;53.196;5.980;2024-02-15T06:46:06;10.30;99.90
54824;DHT22;40724;53.196;5.980;2024-02-15T06:48:32;10.30;99.90
54824;DHT22;40724;53.196;5.980;2024-02-15T06:50:58;10.30;99.90
54824;DHT22;40724;53.196;5.980;2024-02-15T06:53:24;10.30;99.90
54824;DHT22;40724;53.196;5.980;2024-02-15T06:55:50;10.30;99.90
54824;DHT22;40724;53.196;5.980;2024-02-15T06:58:16;10.30;99.90
54824;DHT22;40724;53.196;5.980;2024-02-15T07:00:43;10.30;99.90
54824;DHT22;40724;53.196;5.980;2024-02-15T07:03:09;10.30;99.90
54824;DHT22;40724;53.196;5.980;2024-02-15T07:05:37;10.30;99.90
54824;DHT22;40724;53.196;5.980;2024-02-15T07:08:07;10.30;99.90
54824;DHT22;40724;53.196;5.980;2024-02-15T07:10:37;10.30;99.90
54824;DHT22;40724;53.196;5.980;2024-02-15T07:13:04;10.30;99.90
54824;DHT22;40724;53.196;5.980;2024-02-15T07:15:31;10.30;99.90
54824;DHT22;40724;53.196;5.980;2024-02-15T07:17:58;10.40;99.90
54824;DHT22;40724;53.196;5.980;2024-02-15T07:20:24;10.30;99.90
54824;DHT22;40724;53.196;5.980;2024-02-15T07:22:51;10.30;99.90
54824;DHT22;40724;53.196;5.980;2024-02-15T07:25:17;10.40;99.90
54824;DHT22;40724;53.196;5.980;2024-02-15T07:27:44;10.40;99.90
54824;DHT22;40724;53.196;5.980;2024-02-15T07:30:10;10.30;99.90
54824;DHT22;40724;53.196;5.980;2024-02-15T07:32:35;10.30;99.90
54824;DHT22;40724;53.196;5.980;2024-02-15T07:35:02;10.40;99.90
54824;DHT22;40724;53.196;5.980;2024-02-15T07:37:28;10.40;99.90
54824;DHT22;40724;53.196;5.980;2024-02-15T07:39:55;10.40;99.90
54824;DHT22;40724;53.196;5.980;2024-02-15T07:42:22;10.40;99.90
54824;DHT22;40724;53.196;5.980;2024-02-15T07:44:51;10.40;99.90
54824;DHT22;40724;53.196;5.980;2024-02-15T07:47:18;10.40;99.90
54824;DHT22;40724;53.196;5.980;2024-02-15T07:49:46;10.40;99.90
54824;DHT22;40724;53.196;5.980;2024-02-15T07:52:12;10.40;99.90
54824;DHT22;40724;53.196;5.980;2024-02-15T07:54:39;10.40;99.90
54824;DHT22;40724;53.196;5.980;2024-02-15T07:57:05;10.40;99.90
54824;DHT22;40724;53.196;5.980;2024-02-15T07:59:30;10.40;99.90
54824;DHT22;40724;53.196;5.980;2024-02-15T08:01:56;10.40;99.90
54824;DHT22;40724;53.196;5.980;2024-02-15T08:04:23;10.40;99.90
54824;DHT22;40724;53.196;5.980;2024-02-15T08:06:50;10.40;99.90
54824;DHT22;40724;53.196;5.980;2024-02-15T08:14:13;10.50;99.90
54824;DHT22;40724;53.196;5.980;2024-02-15T08:16:39;10.40;99.90
54824;DHT22;40724;53.196;5.980;2024-02-15T08:19:07;10.50;99.90
54824;DHT22;40724;53.196;5.980;2024-02-15T08:21:33;10.50;99.90
54824;DHT22;40724;53.196;5.980;2024-02-15T08:24:02;10.50;99.90
54824;DHT22;40724;53.196;5.980;2024-02-15T08:26:36;10.50;99.90
54824;DHT22;40724;53.196;5.980;2024-02-15T08:29:04;10.50;99.90
54824;DHT22;40724;53.196;5.980;2024-02-15T08:31:30;10.50;99.90
54824;DHT22;40724;53.196;5.980;2024-02-15T08:34:02;10.50;99.90
54824;DHT22;40724;53.196;5.980;2024-02-15T08:36:31;10.50;99.90
54824;DHT22;40724;53.196;5.980;2024-02-15T08:38:57;10.50;99.90
54824;DHT22;40724;53.196;5.980;2024-02-15T08:41:22;10.50;99.90
54824;DHT22;40724;53.196;5.980;2024-02-15T08:43:53;10.50;99.90
54824;DHT22;40724;53.196;5.980;2024-02-15T08:46:19;10.50;99.90
54824;DHT22;40724;53.196;5.980;2024-02-15T08:48:45;10.50;99.90
54824;DHT22;40724;53.196;5.980;2024-02-15T08:51:12;10.50;99.90
54824;DHT22;40724;53.196;5.980;2024-02-15T08:53:38;10.50;99.90
54824;DHT22;40724;53.196;5.980;2024-02-15T08:56:04;10.60;99.90
54824;DHT22;40724;53.196;5.980;2024-02-15T08:58:30;10.60;99.90
54824;DHT22;40724;53.196;5.980;2024-02-15T09:00:57;10.60;99.90
54824;DHT22;40724;53.196;5.980;2024-02-15T09:03:23;10.60;99.90
54824;DHT22;40724;53.196;5.980;2024-02-15T09:05:50;10.60;99.90
54824;DHT22;40724;53.196;5.980;2024-02-15T09:08:16;10.60;99.90
54824;DHT22;40724;53.196;5.980;2024-02-15T09:10:47;10.60;99.90
54824;DHT22;40724;53.196;5.980;2024-02-15T09:13:13;10.60;99.90
54824;DHT22;40724;53.196;5.980;2024-02-15T09:15:40;10.60;99.90
54824;DHT22;40724;53.196;5.980;2024-02-15T09:18:07;10.60;99.90
54824;DHT22;40724;53.196;5.980;2024-02-15T09:20:35;10.70;99.90
54824;DHT22;40724;53.196;5.980;2024-02-15T09:23:03;10.60;99.90
54824;DHT22;40724;53.196;5.980;2024-02-15T09:35:23;10.70;99.90
54824;DHT22;40724;53.196;5.980;2024-02-15T11:13:02;10.80;99.90
54824;DHT22;40724;53.196;5.980;2024-02-15T11:15:45;11.10;99.90
54824;DHT22;40724;53.196;5.980;2024-02-15T13:33:53;11.10;99.90
54824;DHT22;40724;53.196;5.980;2024-02-15T13:36:18;11.40;99.90
54824;DHT22;40724;53.196;5.980;2024-02-15T13:38:45;11.40;99.90
54824;DHT22;40724;53.196;5.980;2024-02-15T13:41:12;11.40;99.90
54824;DHT22;40724;53.196;5.980;2024-02-15T13:43:38;11.40;99.90
54824;DHT22;40724;53.196;5.980;2024-02-15T13:46:06;11.40;99.90
54824;DHT22;40724;53.196;5.980;2024-02-15T13:48:32;11.40;99.90
54824;DHT22;40724;53.196;5.980;2024-02-15T13:50:58;11.40;99.90
54824;DHT22;40724;53.196;5.980;2024-02-15T13:53:23;11.40;99.90
54824;DHT22;40724;53.196;5.980;2024-02-15T13:55:50;11.40;99.90
54824;DHT22;40724;53.196;5.980;2024-02-15T13:58:18;11.40;99.90
54824;DHT22;40724;53.196;5.980;2024-02-15T14:00:44;11.50;99.90
54824;DHT22;40724;53.196;5.980;2024-02-15T14:03:11;11.40;99.90
54824;DHT22;40724;53.196;5.980;2024-02-15T14:05:37;11.50;99.90
54824;DHT22;40724;53.196;5.980;2024-02-15T14:08:06;11.50;99.90
54824;DHT22;40724;53.196;5.980;2024-02-15T14:10:33;11.50;99.90
54824;DHT22;40724;53.196;5.980;2024-02-15T15:13:23;11.50;99.90
